Weather reports worldwide

Advertisment
Stornoway Airport, United Kingdom (2003026): temperature & dewpoint: 11.07.2019 08:00:00 - 17.07.2019 08:00:00 (BST)Stornoway Airport, United Kingdom (2003026): wind speed: 11.07.2019 08:00:00 - 17.07.2019 08:00:00 (BST)Stornoway Airport, United Kingdom (2003026): wind direction: 11.07.2019 08:00:00 - 17.07.2019 08:00:00 (BST)Stornoway Airport, United Kingdom (2003026): visibility: 11.07.2019 08:00:00 - 17.07.2019 08:00:00 (BST)
Date & Time tt [°C] td [°C] ff [km/h] ff [kn] dd vv [km]
17.07.2019 08:00:00 14,0 13,0 26 14 SSE 10
17.07.2019 07:00:00 14,0 13,0 26 14 SSE 10
17.07.2019 06:00:00 14,0 13,0 29 16 SSE 10
17.07.2019 05:00:00 14,0 13,0 24 13 S 10
17.07.2019 04:00:00 13,0 13,0 21 11 S 10
17.07.2019 03:00:00 14,0 13,0 18 10 S 10
17.07.2019 02:00:00 14,0 13,0 21 11 S 10
17.07.2019 01:00:00 14,0 13,0 22 12 S 7
17.07.2019 00:00:00 14,0 13,0 15 8 S 10
16.07.2019 23:00:00 14,0 13,0 18 10 S 10
16.07.2019 22:00:00 15,0 13,0 22 12 S 10
16.07.2019 21:00:00 15,0 13,0 16 9 S 10
16.07.2019 20:00:00 16,0 13,0 18 10 SSE 10
16.07.2019 19:00:00 15,0 13,0 16 9 S 10
16.07.2019 18:00:00 16,0 13,0 21 11 S 10
16.07.2019 17:00:00 16,0 13,0 21 11 S 10
16.07.2019 16:00:00 17,0 13,0 22 12 S 10
16.07.2019 15:00:00 18,0 13,0 28 15 S 10
16.07.2019 14:00:00 19,0 13,0 29 16 S 10
16.07.2019 13:00:00 18,0 14,0 24 13 S 10
16.07.2019 12:00:00 17,0 14,0 24 13 SSE 10
16.07.2019 11:00:00 17,0 14,0 28 15 S 10
16.07.2019 10:00:00 17,0 13,0 26 14 S 10
16.07.2019 09:00:00 16,0 13,0 22 12 SSW 10
16.07.2019 08:00:00 15,0 13,0 16 9 S 10
16.07.2019 07:00:00 14,0 13,0 9 5 SSE 10
16.07.2019 06:00:00 14,0 12,0 8 4 SSE 10
16.07.2019 05:00:00 14,0 13,0 9 5 SSW 10
16.07.2019 04:00:00 13,0 12,0 5 3 - 10
16.07.2019 03:00:00 12,0 11,0 0 0 N 10
16.07.2019 02:00:00 12,0 12,0 0 0 N 10
16.07.2019 01:00:00 12,0 11,0 5 3 S 10
16.07.2019 00:00:00 13,0 11,0 13 7 S 10
15.07.2019 23:00:00 14,0 12,0 11 6 SSE 10
15.07.2019 22:00:00 14,0 12,0 9 5 S 10
15.07.2019 21:00:00 17,0 12,0 9 5 SSW 10
15.07.2019 20:00:00 17,0 12,0 15 8 S 10
15.07.2019 19:00:00 19,0 12,0 15 8 SSE 10
15.07.2019 18:00:00 20,0 13,0 13 7 SSE 10
15.07.2019 17:00:00 20,0 13,0 16 9 S 10
15.07.2019 16:00:00 19,0 13,0 18 10 SSE 10
15.07.2019 15:00:00 18,0 13,0 16 9 SE 10
15.07.2019 14:00:00 18,0 13,0 18 10 SE 10
15.07.2019 13:00:00 17,0 13,0 15 8 SE 10
15.07.2019 12:00:00 16,0 12,0 13 7 SE 10
15.07.2019 11:00:00 16,0 12,0 11 6 SSE 10
15.07.2019 10:00:00 16,0 12,0 11 6 SE 10
15.07.2019 09:00:00 15,0 12,0 9 5 SE 10
15.07.2019 08:00:00 15,0 12,0 8 4 SE 10
15.07.2019 07:00:00 11,0 11,0 0 0 N 10
15.07.2019 06:00:00 8,0 7,0 0 0 N 10
15.07.2019 05:00:00 7,0 7,0 0 0 N 10
15.07.2019 04:00:00 7,0 7,0 2 1 NNW 10
15.07.2019 03:00:00 8,0 7,0 0 0 N 10
15.07.2019 02:00:00 9,0 8,0 0 0 N 10
15.07.2019 01:00:00 9,0 8,0 0 0 N 10
15.07.2019 00:00:00 9,0 8,0 0 0 N 10
14.07.2019 23:00:00 11,0 10,0 0 0 N 10
14.07.2019 22:00:00 14,0 10,0 4 2 - 10
14.07.2019 21:00:00 15,0 10,0 5 3 - 10
14.07.2019 20:00:00 15,0 10,0 8 4 SE 10
14.07.2019 19:00:00 16,0 10,0 11 6 SE 10
14.07.2019 18:00:00 16,0 11,0 9 5 S 10
14.07.2019 17:00:00 15,0 11,0 9 5 SSE 10
14.07.2019 16:00:00 15,0 11,0 13 7 SSE 10
14.07.2019 15:00:00 15,0 11,0 15 8 SSE 10
14.07.2019 14:00:00 16,0 12,0 16 9 SSE 10
14.07.2019 13:00:00 16,0 12,0 15 8 SSE 10
14.07.2019 12:00:00 15,0 11,0 15 8 SSE 10
14.07.2019 11:00:00 15,0 10,0 13 7 SSE 10
14.07.2019 10:00:00 14,0 9,0 11 6 SSE 10
14.07.2019 09:00:00 14,0 10,0 8 4 S 10
14.07.2019 08:00:00 13,0 10,0 5 3 S 10
14.07.2019 07:00:00 13,0 10,0 4 2 - 10
14.07.2019 06:00:00 12,0 10,0 4 2 - 10
14.07.2019 05:00:00 12,0 9,0 0 0 N 10
14.07.2019 04:00:00 12,0 9,0 4 2 WSW 10
14.07.2019 03:00:00 12,0 8,0 2 1 N 10
14.07.2019 02:00:00 12,0 8,0 9 5 W 10
14.07.2019 01:00:00 12,0 10,0 4 2 WSW 10
14.07.2019 00:00:00 12,0 9,0 4 2 NW 10
13.07.2019 23:00:00 13,0 9,0 8 4 W 10
13.07.2019 22:00:00 13,0 10,0 8 4 WNW 10
13.07.2019 21:00:00 13,0 10,0 11 6 NW 10
13.07.2019 20:00:00 14,0 10,0 11 6 NW 10
13.07.2019 19:00:00 14,0 10,0 16 9 WNW 10
13.07.2019 18:00:00 14,0 10,0 18 10 WNW 10
13.07.2019 17:00:00 15,0 10,0 16 9 WNW 10
13.07.2019 16:00:00 15,0 10,0 21 11 WNW 10
13.07.2019 15:00:00 15,0 11,0 15 8 WNW 10
13.07.2019 14:00:00 16,0 11,0 22 12 WNW 10
13.07.2019 13:00:00 16,0 11,0 22 12 WNW 10
13.07.2019 12:00:00 15,0 11,0 22 12 WNW 10
13.07.2019 11:00:00 15,0 11,0 22 12 NW 10
13.07.2019 10:00:00 14,0 12,0 16 9 W 10
13.07.2019 09:00:00 14,0 11,0 22 12 W 10
13.07.2019 08:00:00 13,0 11,0 11 6 WNW 10
13.07.2019 07:00:00 13,0 12,0 16 9 WNW 10
13.07.2019 06:00:00 13,0 12,0 8 4 WNW 10
13.07.2019 05:00:00 13,0 12,0 9 5 WNW 10
13.07.2019 04:00:00 13,0 12,0 8 4 WNW 10
13.07.2019 03:00:00 13,0 12,0 9 5 WNW 10
13.07.2019 02:00:00 13,0 13,0 8 4 W 10
13.07.2019 01:00:00 14,0 13,0 13 7 WNW 10
13.07.2019 00:00:00 14,0 13,0 18 10 WNW 10
12.07.2019 23:00:00 14,0 13,0 15 8 WNW 10
12.07.2019 22:00:00 14,0 13,0 8 4 WNW 10
12.07.2019 21:00:00 15,0 14,0 13 7 WNW 10
12.07.2019 20:00:00 16,0 14,0 2 1 E 10
12.07.2019 19:00:00 14,0 13,0 5 3 S 10
12.07.2019 18:00:00 15,0 13,0 5 3 SSE 10
12.07.2019 17:00:00 14,0 13,0 2 1 - 10
12.07.2019 16:00:00 14,0 13,0 8 4 NE 10
12.07.2019 15:00:00 14,0 13,0 8 4 ENE 10
12.07.2019 14:00:00 14,0 13,0 9 5 ENE 10
12.07.2019 13:00:00 15,0 13,0 11 6 NE 10
12.07.2019 12:00:00 14,0 13,0 11 6 NE 10
12.07.2019 11:00:00 14,0 13,0 8 4 NE 10
12.07.2019 10:00:00 15,0 14,0 13 7 NNW 10
12.07.2019 09:00:00 15,0 14,0 13 7 NW 10
12.07.2019 08:00:00 14,0 14,0 9 5 WNW 6
12.07.2019 07:00:00 14,0 14,0 5 3 NNW 2,0
12.07.2019 06:00:00 14,0 13,0 8 4 NW 1,6
12.07.2019 05:00:00 14,0 13,0 8 4 WNW 10
12.07.2019 04:00:00 13,0 13,0 9 5 WNW 10
12.07.2019 03:00:00 14,0 13,0 11 6 WNW 10
12.07.2019 02:00:00 14,0 13,0 15 8 NW 10
12.07.2019 01:00:00 14,0 13,0 11 6 NW 10
12.07.2019 00:00:00 14,0 13,0 11 6 WNW 10
11.07.2019 23:00:00 15,0 13,0 8 4 WNW 10
11.07.2019 22:00:00 15,0 13,0 8 4 WNW 10
11.07.2019 21:00:00 16,0 14,0 13 7 NW 10
11.07.2019 20:00:00 17,0 14,0 9 5 SSE 10
11.07.2019 19:00:00 17,0 14,0 15 8 S 10
11.07.2019 18:00:00 17,0 14,0 13 7 SE 10
11.07.2019 17:00:00 18,0 13,0 13 7 S 10
11.07.2019 16:00:00 18,0 13,0 15 8 SSE 10
11.07.2019 15:00:00 18,0 14,0 15 8 S 10
11.07.2019 14:00:00 15,0 15,0 9 5 S 10
11.07.2019 13:00:00 15,0 15,0 11 6 SSE 7
11.07.2019 12:00:00 15,0 15,0 13 7 SE 2,0
11.07.2019 11:00:00 16,0 15,0 4 2 - 10
11.07.2019 10:00:00 16,0 15,0 5 3 - 10
11.07.2019 09:00:00 15,0 15,0 11 6 ESE 8
11.07.2019 08:00:00 15,0 14,0 5 3 E 10

tt = temperature
td = dewpoint
ff = wind speed
dd = wind direction
vv = visibility

Next stations